Nuray Senkaya — TCSN6 — position and weather

sailwx.info

Track history (hours):
 
Tides and Currents Weather Stations Pressure Air Temp Water Temp Dewpoint Dewpoint Depression Visibility Wind Speed Wind Dir Waves Ship Positions

Nuray Senkaya

Last reported at 2018-Apr-18 20:10 UTC. Time now 2018-Apr-20 18:39 UTC.
Position N 31°50' E 034°39'.

Length 109 m; draft 7.4 m.

Type: Cargo ship. MMSI: 271000926.

Date/timePositionNaut miles runAvg speedWind from/ knotsBaromVisibWave heightAir tempDewpointWater temp
2018-Apr-18 20:10N 31°50' E 034°39'0 0.0
2018-Apr-18 19:52N 31°50' E 034°39'0 0.0
2018-Apr-18 19:04N 31°50' E 034°39'0 0.0
2018-Apr-18 18:55N 31°50' E 034°39'0 0.0
2018-Apr-18 18:28N 31°50' E 034°39'0 0.0
2018-Apr-18 17:43N 31°50' E 034°39'0 0.0
2018-Apr-18 17:16N 31°50' E 034°39'0 0.0
2018-Apr-18 16:52N 31°50' E 034°39'0 0.0
2018-Apr-18 16:28N 31°50' E 034°39'0 0.0
2018-Apr-18 15:55N 31°50' E 034°39'0 0.0
2018-Apr-18 15:25N 31°50' E 034°39'0 0.0
2018-Apr-18 14:49N 31°50' E 034°39'0 0.0
2018-Apr-18 14:28N 31°50' E 034°39'0 0.0
2018-Apr-18 13:55N 31°50' E 034°39'0 0.0
2018-Apr-18 13:25N 31°50' E 034°39'0 0.0
2018-Apr-18 12:49N 31°50' E 034°39'0 0.0
2018-Apr-18 12:28N 31°50' E 034°39'0 0.0
2018-Apr-18 11:58N 31°50' E 034°39'0 0.0
2018-Apr-18 11:28N 31°50' E 034°39'0 0.0
2018-Apr-18 10:58N 31°50' E 034°39'0 0.0
2018-Apr-18 10:28N 31°50' E 034°39'0 0.0
2018-Apr-18 10:01N 31°50' E 034°39'0 0.0
2018-Apr-18 09:27N 31°50' E 034°39'0 0.0
2018-Apr-18 09:00N 31°50' E 034°39'0 0.0
2018-Apr-18 08:27N 31°50' E 034°39'0 0.0
2018-Apr-18 07:57N 31°50' E 034°39'0 0.0
2018-Apr-18 06:42N 31°50' E 034°39'0 0.0
2018-Apr-18 06:24N 31°50' E 034°39'0 0.0
2018-Apr-18 05:48N 31°50' E 034°39'0 0.0
2018-Apr-18 05:09N 31°50' E 034°39'0 0.0
2018-Apr-18 05:00N 31°50' E 034°39'0 0.0
2018-Apr-18 04:27N 31°50' E 034°39'0 0.0
2018-Apr-18 04:00N 31°50' E 034°39'0 0.0
2018-Apr-18 03:30N 31°50' E 034°39'0 0.0
2018-Apr-18 03:00N 31°50' E 034°39'0 0.0
2018-Apr-18 02:30N 31°50' E 034°39'0 0.0
2018-Apr-18 01:57N 31°50' E 034°39'0 0.0
2018-Apr-18 01:30N 31°50' E 034°39'0 0.0
2018-Apr-18 01:00N 31°50' E 034°39'0 0.0
2018-Apr-18 00:27N 31°50' E 034°39'0 0.0
2018-Apr-18 00:00N 31°50' E 034°39'0 0.0
2018-Apr-17 23:30N 31°50' E 034°39'0 0.0
2018-Apr-17 22:57N 31°50' E 034°39'0 0.0
2018-Apr-17 22:30N 31°50' E 034°39'0 0.0
2018-Apr-17 21:54N 31°50' E 034°39'0 0.0
2018-Apr-17 21:27N 31°50' E 034°39'0 0.0
2018-Apr-17 20:54N 31°50' E 034°39'0 0.0
2018-Apr-17 19:54N 31°50' E 034°39'0 0.0
2018-Apr-17 19:24N 31°50' E 034°39'0 0.0
2018-Apr-17 19:00N 31°50' E 034°39'0 0.0
2018-Apr-17 18:30N 31°50' E 034°39'0 0.0
2018-Apr-17 18:00N 31°50' E 034°39'0 0.0
2018-Apr-17 17:30N 31°50' E 034°39'0 0.0
2018-Apr-17 16:54N 31°50' E 034°39'0 0.0
2018-Apr-17 16:24N 31°50' E 034°39'0 0.0
2018-Apr-17 13:57N 31°50' E 034°39'0 0.0
2018-Apr-17 11:12N 31°50' E 034°39'0 0.0
2018-Apr-17 11:00N 31°50' E 034°39'0 0.0
2018-Apr-17 10:30N 31°50' E 034°39'0 0.0
2018-Apr-17 08:45N 31°50' E 034°39'0 1.4
2018-Apr-17 08:28N 31°50' E 034°38'2 3.4
2018-Apr-17 07:56N 31°51' E 034°38'2 4.4
2018-Apr-17 07:30N 31°50' E 034°36'1 0.2
2018-Apr-17 05:24N 31°50' E 034°35'0 0.0
2018-Apr-17 04:27N 31°50' E 034°35'0 0.0
2018-Apr-17 04:00N 31°50' E 034°35'0 0.0
2018-Apr-17 03:27N 31°50' E 034°35'0 0.0
2018-Apr-17 03:00N 31°50' E 034°35'0 0.0
2018-Apr-17 00:48N 31°50' E 034°35'  
2018-Apr-14 19:38N 31°53' E 034°30'2 8.6
2018-Apr-14 19:25N 31°54' E 034°28'7 8.5
2018-Apr-14 18:36N 31°57' E 034°21'2 8.5
2018-Apr-14 18:26N 31°58' E 034°19'8 7.8
2018-Apr-14 17:27N 32°05' E 034°18'12 8.9
2018-Apr-14 16:08N 32°17' E 034°19'29 8.8
2018-Apr-14 12:47N 32°46' E 034°22'3 8.8
2018-Apr-14 12:29N 32°49' E 034°22'4 8.7
2018-Apr-14 11:59N 32°53' E 034°23'9 8.5
2018-Apr-14 10:54N 33°02' E 034°24'3 8.6
2018-Apr-14 10:30N 33°06' E 034°24'4 8.8
2018-Apr-14 10:00N 33°10' E 034°24'  
Track history (hours):
 
Tides and Currents Weather Stations Pressure Air Temp Water Temp Dewpoint Dewpoint Depression Visibility Wind Speed Wind Dir Waves Ship Positions

Nuray Senkaya

Last reported at 2018-Apr-18 20:10 UTC. Time now 2018-Apr-20 18:39 UTC.
Position N 31°50' E 034°39'.

Length 109 m; draft 7.4 m.

Type: Cargo ship. MMSI: 271000926.

Date/timePositionNaut miles runAvg speedWind from/ knotsBaromVisibWave heightAir tempDewpointWater temp
2018-Apr-18 20:10N 31°50' E 034°39'0 0.0
2018-Apr-18 19:52N 31°50' E 034°39'0 0.0
2018-Apr-18 19:04N 31°50' E 034°39'0 0.0
2018-Apr-18 18:55N 31°50' E 034°39'0 0.0
2018-Apr-18 18:28N 31°50' E 034°39'0 0.0
2018-Apr-18 17:43N 31°50' E 034°39'0 0.0
2018-Apr-18 17:16N 31°50' E 034°39'0 0.0
2018-Apr-18 16:52N 31°50' E 034°39'0 0.0
2018-Apr-18 16:28N 31°50' E 034°39'0 0.0
2018-Apr-18 15:55N 31°50' E 034°39'0 0.0
2018-Apr-18 15:25N 31°50' E 034°39'0 0.0
2018-Apr-18 14:49N 31°50' E 034°39'0 0.0
2018-Apr-18 14:28N 31°50' E 034°39'0 0.0
2018-Apr-18 13:55N 31°50' E 034°39'0 0.0
2018-Apr-18 13:25N 31°50' E 034°39'0 0.0
2018-Apr-18 12:49N 31°50' E 034°39'0 0.0
2018-Apr-18 12:28N 31°50' E 034°39'0 0.0
2018-Apr-18 11:58N 31°50' E 034°39'0 0.0
2018-Apr-18 11:28N 31°50' E 034°39'0 0.0
2018-Apr-18 10:58N 31°50' E 034°39'0 0.0
2018-Apr-18 10:28N 31°50' E 034°39'0 0.0
2018-Apr-18 10:01N 31°50' E 034°39'0 0.0
2018-Apr-18 09:27N 31°50' E 034°39'0 0.0
2018-Apr-18 09:00N 31°50' E 034°39'0 0.0
2018-Apr-18 08:27N 31°50' E 034°39'0 0.0
2018-Apr-18 07:57N 31°50' E 034°39'0 0.0
2018-Apr-18 06:42N 31°50' E 034°39'0 0.0
2018-Apr-18 06:24N 31°50' E 034°39'0 0.0
2018-Apr-18 05:48N 31°50' E 034°39'0 0.0
2018-Apr-18 05:09N 31°50' E 034°39'0 0.0
2018-Apr-18 05:00N 31°50' E 034°39'0 0.0
2018-Apr-18 04:27N 31°50' E 034°39'0 0.0
2018-Apr-18 04:00N 31°50' E 034°39'0 0.0
2018-Apr-18 03:30N 31°50' E 034°39'0 0.0
2018-Apr-18 03:00N 31°50' E 034°39'0 0.0
2018-Apr-18 02:30N 31°50' E 034°39'0 0.0
2018-Apr-18 01:57N 31°50' E 034°39'0 0.0
2018-Apr-18 01:30N 31°50' E 034°39'0 0.0
2018-Apr-18 01:00N 31°50' E 034°39'0 0.0
2018-Apr-18 00:27N 31°50' E 034°39'0 0.0
2018-Apr-18 00:00N 31°50' E 034°39'0 0.0
2018-Apr-17 23:30N 31°50' E 034°39'0 0.0
2018-Apr-17 22:57N 31°50' E 034°39'0 0.0
2018-Apr-17 22:30N 31°50' E 034°39'0 0.0
2018-Apr-17 21:54N 31°50' E 034°39'0 0.0
2018-Apr-17 21:27N 31°50' E 034°39'0 0.0
2018-Apr-17 20:54N 31°50' E 034°39'0 0.0
2018-Apr-17 19:54N 31°50' E 034°39'0 0.0
2018-Apr-17 19:24N 31°50' E 034°39'0 0.0
2018-Apr-17 19:00N 31°50' E 034°39'0 0.0
2018-Apr-17 18:30N 31°50' E 034°39'0 0.0
2018-Apr-17 18:00N 31°50' E 034°39'0 0.0
2018-Apr-17 17:30N 31°50' E 034°39'0 0.0
2018-Apr-17 16:54N 31°50' E 034°39'0 0.0
2018-Apr-17 16:24N 31°50' E 034°39'0 0.0
2018-Apr-17 13:57N 31°50' E 034°39'0 0.0
2018-Apr-17 11:12N 31°50' E 034°39'0 0.0
2018-Apr-17 11:00N 31°50' E 034°39'0 0.0
2018-Apr-17 10:30N 31°50' E 034°39'0 0.0
2018-Apr-17 08:45N 31°50' E 034°39'0 1.4
2018-Apr-17 08:28N 31°50' E 034°38'2 3.4
2018-Apr-17 07:56N 31°51' E 034°38'2 4.4
2018-Apr-17 07:30N 31°50' E 034°36'1 0.2
2018-Apr-17 05:24N 31°50' E 034°35'0 0.0
2018-Apr-17 04:27N 31°50' E 034°35'0 0.0
2018-Apr-17 04:00N 31°50' E 034°35'0 0.0
2018-Apr-17 03:27N 31°50' E 034°35'0 0.0
2018-Apr-17 03:00N 31°50' E 034°35'0 0.0
2018-Apr-17 00:48N 31°50' E 034°35'  
2018-Apr-14 19:38N 31°53' E 034°30'2 8.6
2018-Apr-14 19:25N 31°54' E 034°28'7 8.5
2018-Apr-14 18:36N 31°57' E 034°21'2 8.5
2018-Apr-14 18:26N 31°58' E 034°19'8 7.8
2018-Apr-14 17:27N 32°05' E 034°18'12 8.9
2018-Apr-14 16:08N 32°17' E 034°19'29 8.8
2018-Apr-14 12:47N 32°46' E 034°22'3 8.8
2018-Apr-14 12:29N 32°49' E 034°22'4 8.7
2018-Apr-14 11:59N 32°53' E 034°23'9 8.5
2018-Apr-14 10:54N 33°02' E 034°24'3 8.6
2018-Apr-14 10:30N 33°06' E 034°24'4 8.8
2018-Apr-14 10:00N 33°10' E 034°24'  

Dump ship's entire track history